createdAt,value
2023-04-20T00:02:21.677Z,2.88
2023-04-20T00:04:49.210Z,3.65
2023-04-20T00:07:16.880Z,3.97
2023-04-20T00:09:44.235Z,2.97
2023-04-20T00:12:11.608Z,3.33
2023-04-20T00:14:39.326Z,5.60
2023-04-20T00:17:06.817Z,7.82
2023-04-20T00:19:34.235Z,4.35
2023-04-20T00:22:01.582Z,2.97
2023-04-20T00:24:29.152Z,6.20
2023-04-20T00:26:56.677Z,3.00
2023-04-20T00:29:24.060Z,3.95
2023-04-20T00:31:51.424Z,3.53
2023-04-20T00:34:18.800Z,5.15
2023-04-20T00:36:46.167Z,3.80
2023-04-20T00:39:13.551Z,6.13
2023-04-20T00:41:41.039Z,3.67
2023-04-20T00:44:11.366Z,2.65
2023-04-20T00:46:38.826Z,5.63
2023-04-20T00:49:07.223Z,4.00
2023-04-20T00:51:35.642Z,3.13
2023-04-20T00:54:05.879Z,4.45
2023-04-20T00:56:33.277Z,4.00
2023-04-20T00:59:01.851Z,2.42
2023-04-20T01:01:29.605Z,6.57
2023-04-20T01:03:57.117Z,4.82
2023-04-20T01:06:24.546Z,3.92
2023-04-20T01:08:54.207Z,3.92
2023-04-20T01:11:22.173Z,3.85
2023-04-20T01:13:49.880Z,3.88
2023-04-20T01:16:17.449Z,3.15
2023-04-20T01:18:47.383Z,8.35
2023-04-20T01:21:17.875Z,4.07
2023-04-20T01:23:46.160Z,3.63
2023-04-20T01:26:18.288Z,4.35
2023-04-20T01:28:46.160Z,4.65
2023-04-20T01:31:16.270Z,3.78
2023-04-20T01:33:43.708Z,6.75
2023-04-20T01:36:11.723Z,4.40
2023-04-20T01:38:39.194Z,3.47
2023-04-20T01:41:09.206Z,3.70
2023-04-20T01:43:37.664Z,5.40
2023-04-20T01:46:06.265Z,4.82
2023-04-20T01:48:34.002Z,5.20
2023-04-20T01:51:01.380Z,4.20
2023-04-20T01:53:28.792Z,4.15
2023-04-20T01:55:56.127Z,6.00
2023-04-20T01:58:23.759Z,6.05
2023-04-20T02:00:51.124Z,3.72
2023-04-20T02:03:18.866Z,4.38
2023-04-20T02:05:47.683Z,4.25
2023-04-20T02:08:14.987Z,5.82
2023-04-20T02:10:42.342Z,3.05
2023-04-20T02:13:09.941Z,5.63
2023-04-20T02:15:37.618Z,4.75
2023-04-20T02:18:05.222Z,7.18
2023-04-20T02:20:32.809Z,5.07
2023-04-20T02:23:00.177Z,2.90
2023-04-20T02:25:28.622Z,4.82
2023-04-20T02:27:56.145Z,5.03
2023-04-20T02:30:23.583Z,7.57
2023-04-20T02:32:50.933Z,6.05
2023-04-20T02:35:19.014Z,4.20
2023-04-20T02:37:46.804Z,4.20
2023-04-20T02:40:14.656Z,4.35
2023-04-20T02:42:42.173Z,6.32
2023-04-20T02:45:11.411Z,3.67
2023-04-20T02:47:39.730Z,5.70
2023-04-20T02:50:09.119Z,4.32
2023-04-20T02:52:52.873Z,4.95
2023-04-20T02:55:20.309Z,7.75
2023-04-20T02:57:51.127Z,5.53
2023-04-20T03:00:19.951Z,4.68
2023-04-20T03:03:00.987Z,5.20
2023-04-20T03:05:28.520Z,6.72
2023-04-20T03:07:57.040Z,4.53
2023-04-20T03:10:26.153Z,4.43
2023-04-20T03:12:58.833Z,4.78
2023-04-20T03:15:36.336Z,4.88
2023-04-20T03:20:49.274Z,3.92
2023-04-20T03:23:16.707Z,4.80
2023-04-20T03:25:46.654Z,8.63
2023-04-20T03:28:21.468Z,3.58
2023-04-20T03:30:48.976Z,2.90
2023-04-20T03:33:17.019Z,3.97
2023-04-20T03:35:44.405Z,5.47
2023-04-20T03:38:11.862Z,4.35
2023-04-20T03:40:39.406Z,3.83
2023-04-20T03:43:06.771Z,4.13
2023-04-20T03:45:34.185Z,4.03
2023-04-20T03:48:01.675Z,6.80
2023-04-20T03:50:29.218Z,7.07
2023-04-20T03:52:56.633Z,5.63
2023-04-20T03:55:24.203Z,4.43
2023-04-20T03:57:58.194Z,9.30
2023-04-20T04:00:27.026Z,5.85
2023-04-20T04:03:03.391Z,4.18
2023-04-20T04:05:31.252Z,7.20
2023-04-20T04:07:58.580Z,4.78
2023-04-20T04:10:26.546Z,5.50
2023-04-20T04:12:54.096Z,3.33
2023-04-20T04:15:21.769Z,2.67
2023-04-20T04:17:56.787Z,3.65
2023-04-20T04:20:24.200Z,4.53
2023-04-20T04:22:52.352Z,5.22
2023-04-20T04:25:33.686Z,3.80
2023-04-20T04:28:01.035Z,3.70
2023-04-20T04:30:30.548Z,4.18
2023-04-20T04:32:59.814Z,6.63
2023-04-20T04:35:30.505Z,6.25
2023-04-20T04:37:58.165Z,6.65
2023-04-20T04:40:25.959Z,4.68
2023-04-20T04:42:55.816Z,6.70
2023-04-20T04:45:25.285Z,3.83
2023-04-20T04:47:53.943Z,4.10
2023-04-20T04:50:22.139Z,3.72
2023-04-20T04:52:49.510Z,3.63
2023-04-20T04:55:16.861Z,2.60
2023-04-20T04:57:44.406Z,3.85
2023-04-20T05:00:12.864Z,7.68
2023-04-20T05:02:40.780Z,5.13
2023-04-20T05:05:10.170Z,5.13
2023-04-20T05:07:38.454Z,4.55
2023-04-20T05:10:07.393Z,5.38
2023-04-20T05:12:34.797Z,6.13
2023-04-20T05:15:02.632Z,3.80
2023-04-20T05:17:30.041Z,3.33
2023-04-20T05:19:57.391Z,7.93
2023-04-20T05:22:24.718Z,4.93
2023-04-20T05:24:52.039Z,3.72
2023-04-20T05:27:19.348Z,5.90
2023-04-20T05:29:47.095Z,3.35
2023-04-20T05:32:14.496Z,3.15
2023-04-20T05:34:41.760Z,2.80
2023-04-20T05:37:09.527Z,3.65
2023-04-20T05:39:36.875Z,6.85
2023-04-20T05:42:04.286Z,4.20
2023-04-20T05:44:31.773Z,5.07
2023-04-20T05:46:59.130Z,5.35
2023-04-20T05:49:26.796Z,3.08
2023-04-20T05:51:54.092Z,2.50
2023-04-20T05:54:21.433Z,3.95
2023-04-20T05:56:48.750Z,3.97
2023-04-20T05:59:17.527Z,3.63
2023-04-20T06:01:45.087Z,4.07
2023-04-20T06:04:12.701Z,5.70
2023-04-20T06:06:40.350Z,4.20
2023-04-20T06:09:07.737Z,5.60
2023-04-20T06:11:35.133Z,4.15
2023-04-20T06:14:02.449Z,4.65
2023-04-20T06:16:29.831Z,2.42
2023-04-20T06:18:57.151Z,3.78
2023-04-20T06:21:24.682Z,6.32
2023-04-20T06:23:52.012Z,4.32
2023-04-20T06:26:19.316Z,8.18
2023-04-20T06:28:48.319Z,3.90
2023-04-20T06:31:15.779Z,3.80
2023-04-20T06:33:43.372Z,7.18
2023-04-20T06:36:11.022Z,5.93
2023-04-20T06:38:38.510Z,7.43
2023-04-20T06:41:06.068Z,4.30
2023-04-20T06:43:33.444Z,3.70
2023-04-20T06:46:00.765Z,4.35
2023-04-20T06:48:32.011Z,4.78
2023-04-20T06:51:00.390Z,4.47
2023-04-20T06:53:27.808Z,3.88
2023-04-20T06:55:55.871Z,4.65
2023-04-20T06:58:23.271Z,3.50
2023-04-20T07:00:50.931Z,5.07
2023-04-20T07:03:18.999Z,5.00
2023-04-20T07:05:47.186Z,4.28
2023-04-20T07:08:15.885Z,4.43
2023-04-20T07:10:43.626Z,6.05
2023-04-20T07:13:11.022Z,5.32
2023-04-20T07:15:38.387Z,5.40
2023-04-20T07:18:06.327Z,5.90
2023-04-20T07:20:33.715Z,6.68
2023-04-20T07:23:00.971Z,7.80
2023-04-20T07:25:28.428Z,3.78
2023-04-20T07:27:55.763Z,2.92
2023-04-20T07:30:23.438Z,5.28
2023-04-20T07:32:51.776Z,5.05
2023-04-20T07:35:19.191Z,3.97
2023-04-20T07:37:47.464Z,5.15
2023-04-20T07:40:16.808Z,4.95
2023-04-20T07:42:44.278Z,5.57
2023-04-20T07:45:12.824Z,5.05
2023-04-20T07:47:40.516Z,4.72
2023-04-20T07:50:08.636Z,5.05
2023-04-20T07:52:36.001Z,5.82
2023-04-20T07:55:03.684Z,4.63
2023-04-20T07:57:31.338Z,2.00
2023-04-20T07:59:58.734Z,3.95
2023-04-20T08:02:26.363Z,4.07
2023-04-20T08:04:54.114Z,5.57
2023-04-20T08:07:21.656Z,5.50
2023-04-20T08:09:49.135Z,5.40
2023-04-20T08:12:16.513Z,4.35
2023-04-20T08:14:43.890Z,6.85
2023-04-20T08:17:11.418Z,7.90
2023-04-20T08:19:39.505Z,4.70
2023-04-20T08:22:07.262Z,6.35
2023-04-20T08:24:34.873Z,7.38
2023-04-20T08:27:02.381Z,4.97
2023-04-20T08:29:29.767Z,6.90
2023-04-20T08:31:57.117Z,6.00
2023-04-20T08:34:24.528Z,6.97
2023-04-20T08:36:52.225Z,5.90
2023-04-20T08:39:21.871Z,4.07
2023-04-20T08:41:53.716Z,5.90
2023-04-20T08:44:21.634Z,4.88
2023-04-20T08:46:49.557Z,7.00
2023-04-20T08:49:17.909Z,6.60
2023-04-20T08:51:46.780Z,5.28
2023-04-20T08:54:14.596Z,3.28
2023-04-20T08:56:44.519Z,5.85
2023-04-20T08:59:14.152Z,5.22
2023-04-20T09:01:42.450Z,4.90
2023-04-20T09:04:21.817Z,4.65
2023-04-20T09:06:55.079Z,7.30
2023-04-20T09:09:23.927Z,6.53
2023-04-20T09:12:09.801Z,4.80
2023-04-20T09:14:45.221Z,5.93
2023-04-20T09:17:16.043Z,4.85
2023-04-20T09:19:52.973Z,5.10
2023-04-20T09:22:31.117Z,7.82
2023-04-20T09:24:59.202Z,5.82
2023-04-20T09:27:26.925Z,7.85
2023-04-20T09:30:01.392Z,8.02
2023-04-20T09:32:29.361Z,5.90
2023-04-20T09:34:57.242Z,9.00
2023-04-20T09:37:25.655Z,7.28
2023-04-20T09:39:59.530Z,7.25
2023-04-20T09:42:28.870Z,7.67
2023-04-20T09:44:57.324Z,10.00
2023-04-20T09:47:26.667Z,5.30
2023-04-20T09:49:55.261Z,5.32
2023-04-20T09:52:25.186Z,6.07
2023-04-20T09:54:53.043Z,5.05
2023-04-20T09:57:21.729Z,6.93
2023-04-20T09:59:53.361Z,5.95
2023-04-20T10:02:21.010Z,4.85
2023-04-20T10:04:56.299Z,6.32
2023-04-20T10:07:26.084Z,5.18
2023-04-20T10:10:05.258Z,6.05
2023-04-20T10:12:32.932Z,9.18
2023-04-20T10:15:01.328Z,9.63
2023-04-20T10:17:33.234Z,6.63
2023-04-20T10:20:00.769Z,6.60
2023-04-20T10:22:33.562Z,5.85
2023-04-20T10:25:02.331Z,5.22
2023-04-20T10:27:32.240Z,9.10
2023-04-20T10:30:10.412Z,5.15
2023-04-20T10:32:37.858Z,6.35
2023-04-20T10:35:08.825Z,4.80
2023-04-20T10:37:47.214Z,9.20
2023-04-20T10:40:14.635Z,6.18
2023-04-20T10:42:45.728Z,5.25
2023-04-20T10:45:13.468Z,9.85
2023-04-20T10:47:41.145Z,6.78
2023-04-20T10:50:16.412Z,6.72
2023-04-20T10:52:44.729Z,5.97
2023-04-20T10:55:23.831Z,6.88
2023-04-20T10:57:51.959Z,6.85
2023-04-20T11:00:24.939Z,8.25
2023-04-20T11:02:54.461Z,6.88
2023-04-20T11:05:23.314Z,6.32
2023-04-20T11:07:55.425Z,7.45
2023-04-20T11:10:36.798Z,7.80
2023-04-20T11:13:04.590Z,6.35
2023-04-20T11:15:35.437Z,5.75
2023-04-20T11:18:10.716Z,8.43
2023-04-20T11:20:49.500Z,8.45
2023-04-20T11:23:16.824Z,6.65
2023-04-20T11:26:10.891Z,5.53
2023-04-20T11:28:38.272Z,6.93
2023-04-20T11:31:05.698Z,7.40
2023-04-20T11:33:34.215Z,6.78
2023-04-20T11:36:02.318Z,9.70
2023-04-20T11:38:34.528Z,7.47
2023-04-20T11:41:05.044Z,9.50
2023-04-20T11:43:32.844Z,9.60
2023-04-20T11:46:02.726Z,7.15
2023-04-20T11:48:33.438Z,8.27
2023-04-20T11:51:00.740Z,7.00
2023-04-20T11:53:28.397Z,5.90
2023-04-20T11:55:56.000Z,5.70
2023-04-20T11:58:23.364Z,8.32
2023-04-20T12:00:51.102Z,5.80
2023-04-20T12:03:18.523Z,6.05
2023-04-20T12:05:46.080Z,7.07
2023-04-20T12:08:13.474Z,6.70
2023-04-20T12:10:41.636Z,4.18
2023-04-20T12:13:08.924Z,5.55
2023-04-20T12:15:36.435Z,5.75
2023-04-20T12:18:03.901Z,5.70
2023-04-20T12:20:31.322Z,8.02
2023-04-20T12:22:59.136Z,7.03
2023-04-20T12:25:26.673Z,5.60
2023-04-20T12:27:54.032Z,6.22
2023-04-20T12:30:21.413Z,6.30
2023-04-20T12:32:48.779Z,4.97
2023-04-20T12:35:16.309Z,5.88
2023-04-20T12:37:43.667Z,5.88
2023-04-20T12:40:11.574Z,5.18
2023-04-20T12:42:38.997Z,6.18
2023-04-20T12:45:06.928Z,5.13
2023-04-20T12:47:34.260Z,7.35
2023-04-20T12:50:01.657Z,6.30
2023-04-20T12:52:29.436Z,8.18
2023-04-20T12:54:56.881Z,6.60
2023-04-20T12:57:24.333Z,7.75
2023-04-20T12:59:52.024Z,5.97
2023-04-20T13:02:19.762Z,5.57
2023-04-20T13:04:47.380Z,6.97
2023-04-20T13:07:16.052Z,4.93
2023-04-20T13:09:43.637Z,5.22
2023-04-20T13:12:11.355Z,7.20
2023-04-20T13:14:38.624Z,5.57
2023-04-20T13:17:06.995Z,5.47
2023-04-20T13:19:34.528Z,5.32
2023-04-20T13:22:02.103Z,5.32
2023-04-20T13:24:29.641Z,5.75
2023-04-20T13:26:57.207Z,5.72
2023-04-20T13:29:26.046Z,6.15
2023-04-20T13:31:53.640Z,7.15
2023-04-20T13:34:21.257Z,4.72
2023-04-20T13:36:49.666Z,6.35
2023-04-20T13:39:19.230Z,6.95
2023-04-20T13:41:49.313Z,6.88
2023-04-20T13:44:17.382Z,6.25
2023-04-20T13:46:46.495Z,6.35
2023-04-20T13:49:14.063Z,6.25
2023-04-20T13:51:42.212Z,4.82
2023-04-20T13:54:09.804Z,5.40
2023-04-20T13:56:37.177Z,6.93
2023-04-20T13:59:04.694Z,5.55
2023-04-20T14:01:32.263Z,5.93
2023-04-20T14:03:59.984Z,5.45
2023-04-20T14:06:28.865Z,6.57
2023-04-20T14:08:56.627Z,4.97
2023-04-20T14:11:24.120Z,6.93
2023-04-20T14:13:52.007Z,5.82
2023-04-20T14:16:19.584Z,8.00
2023-04-20T14:18:46.931Z,7.80
2023-04-20T14:21:14.244Z,6.47
2023-04-20T14:23:41.621Z,6.35
2023-04-20T14:26:10.144Z,5.63
2023-04-20T14:28:37.501Z,7.22
2023-04-20T14:31:05.138Z,6.60
2023-04-20T14:33:32.613Z,6.22
2023-04-20T14:36:00.142Z,5.95
2023-04-20T14:38:27.553Z,6.55
2023-04-20T14:40:54.813Z,7.03
2023-04-20T14:43:22.841Z,7.55
2023-04-20T14:45:51.266Z,5.28
2023-04-20T14:48:18.761Z,5.35
2023-04-20T14:50:46.159Z,6.82
2023-04-20T14:53:13.532Z,6.15
2023-04-20T14:55:41.061Z,6.47
2023-04-20T14:58:08.414Z,6.43
2023-04-20T15:00:35.802Z,6.13
2023-04-20T15:03:03.962Z,6.93
2023-04-20T15:05:31.620Z,7.85
2023-04-20T15:07:59.086Z,7.43
2023-04-20T15:10:26.578Z,13.70
2023-04-20T15:12:53.919Z,7.40
2023-04-20T15:15:21.495Z,7.32
2023-04-20T15:17:48.933Z,7.20
2023-04-20T15:20:16.472Z,7.05
2023-04-20T15:22:43.866Z,7.50
2023-04-20T15:25:11.415Z,5.50
2023-04-20T15:27:39.071Z,7.53
2023-04-20T15:30:08.534Z,8.95
2023-04-20T15:32:36.051Z,9.15
2023-04-20T15:35:03.711Z,6.95
2023-04-20T15:37:31.403Z,8.70
2023-04-20T15:39:59.265Z,7.75
2023-04-20T15:42:27.518Z,8.40
2023-04-20T15:44:55.035Z,7.90
2023-04-20T15:47:22.427Z,6.93
2023-04-20T15:49:49.903Z,6.95
2023-04-20T15:52:17.272Z,9.23
2023-04-20T15:54:47.507Z,7.55
2023-04-20T15:57:14.845Z,6.93
2023-04-20T15:59:42.339Z,7.32
2023-04-20T16:02:09.908Z,7.78
2023-04-20T16:04:37.458Z,8.18
2023-04-20T16:07:05.072Z,8.05
2023-04-20T16:09:32.925Z,5.60
2023-04-20T16:12:02.136Z,7.68
2023-04-20T16:14:29.898Z,7.00
2023-04-20T16:17:00.527Z,8.55
2023-04-20T16:19:28.621Z,6.72
2023-04-20T16:21:56.054Z,9.95
2023-04-20T16:24:23.442Z,7.30
2023-04-20T16:26:50.936Z,7.55
2023-04-20T16:29:18.276Z,7.13
2023-04-20T16:31:45.626Z,8.00
2023-04-20T16:34:13.024Z,9.15
2023-04-20T16:36:40.380Z,8.70
2023-04-20T16:39:08.167Z,5.82
2023-04-20T16:41:35.978Z,7.38
2023-04-20T16:44:03.604Z,7.15
2023-04-20T16:46:32.078Z,8.65
2023-04-20T16:49:00.166Z,8.25
2023-04-20T16:51:29.282Z,7.30
2023-04-20T16:53:56.887Z,7.18
2023-04-20T16:56:24.272Z,6.88
2023-04-20T16:58:51.784Z,7.53
2023-04-20T17:01:19.571Z,7.65
2023-04-20T17:03:47.800Z,5.25
2023-04-20T17:06:15.373Z,7.47
2023-04-20T17:08:42.778Z,6.15
2023-04-20T17:11:10.230Z,9.38
2023-04-20T17:13:37.971Z,6.80
2023-04-20T17:16:05.959Z,6.60
2023-04-20T17:18:35.070Z,6.80
2023-04-20T17:21:02.500Z,6.30
2023-04-20T17:23:29.941Z,8.25
2023-04-20T17:25:57.876Z,10.30
2023-04-20T17:28:25.765Z,7.05
2023-04-20T17:30:54.418Z,7.05
2023-04-20T17:33:21.775Z,7.45
2023-04-20T17:35:49.194Z,6.68
2023-04-20T17:38:16.592Z,6.72
2023-04-20T17:40:43.993Z,6.75
2023-04-20T17:43:11.453Z,6.55
2023-04-20T17:45:39.000Z,6.70
2023-04-20T17:48:06.806Z,6.43
2023-04-20T17:50:34.591Z,7.93
2023-04-20T17:53:06.750Z,8.05
2023-04-20T17:55:35.394Z,7.28
2023-04-20T17:58:02.814Z,6.60
2023-04-20T18:00:30.169Z,7.93
2023-04-20T18:02:59.016Z,6.57
2023-04-20T18:05:27.054Z,10.95
2023-04-20T18:07:54.401Z,6.57
2023-04-20T18:10:21.834Z,6.70
2023-04-20T18:12:49.218Z,9.68
2023-04-20T18:15:16.727Z,7.07
2023-04-20T18:17:44.453Z,6.63
2023-04-20T18:20:12.516Z,7.30
2023-04-20T18:22:39.987Z,7.63
2023-04-20T18:25:07.607Z,6.55
2023-04-20T18:27:34.998Z,8.68
2023-04-20T18:30:02.428Z,6.95
2023-04-20T18:32:31.219Z,8.43
2023-04-20T18:35:00.275Z,6.35
2023-04-20T18:37:27.796Z,6.20
2023-04-20T18:39:55.915Z,7.22
2023-04-20T18:42:23.288Z,6.50
2023-04-20T18:44:52.853Z,6.07
2023-04-20T18:47:22.097Z,6.40
2023-04-20T18:49:49.496Z,6.65
2023-04-20T18:52:19.248Z,7.00
2023-04-20T18:54:47.508Z,8.75
2023-04-20T18:57:15.110Z,6.47
2023-04-20T18:59:42.444Z,7.07
2023-04-20T19:02:10.376Z,7.22
2023-04-20T19:04:37.839Z,7.28
2023-04-20T19:07:05.135Z,7.53
2023-04-20T19:09:32.472Z,6.97
2023-04-20T19:11:59.900Z,6.97
2023-04-20T19:14:27.452Z,6.70
2023-04-20T19:16:54.828Z,6.75
2023-04-20T19:19:22.196Z,7.50
2023-04-20T19:21:49.960Z,6.80
2023-04-20T19:24:18.036Z,6.78
2023-04-20T19:26:45.921Z,9.40
2023-04-20T19:29:14.086Z,7.18
2023-04-20T19:31:42.025Z,7.40
2023-04-20T19:34:10.605Z,7.28
2023-04-20T19:36:37.959Z,6.78
2023-04-20T19:39:07.233Z,6.68
2023-04-20T19:41:35.144Z,7.78
2023-04-20T19:44:06.194Z,8.20
2023-04-20T19:46:34.065Z,7.00
2023-04-20T19:49:01.894Z,6.97
2023-04-20T19:51:30.850Z,6.25
2023-04-20T19:54:00.640Z,7.60
2023-04-20T19:56:28.052Z,6.10
2023-04-20T19:58:55.496Z,6.07
2023-04-20T20:01:22.887Z,8.13
2023-04-20T20:03:50.559Z,8.23
2023-04-20T20:06:18.446Z,7.68
2023-04-20T20:08:47.698Z,7.18
2023-04-20T20:11:15.805Z,7.63
2023-04-20T20:13:43.172Z,8.02
2023-04-20T20:16:12.374Z,9.50
2023-04-20T20:18:41.778Z,9.00
2023-04-20T20:21:09.160Z,7.85
2023-04-20T20:23:36.839Z,7.57
2023-04-20T20:26:04.328Z,8.60
2023-04-20T20:28:31.706Z,8.90
2023-04-20T20:30:59.190Z,7.20
2023-04-20T20:33:26.771Z,8.18
2023-04-20T20:35:55.165Z,7.68
2023-04-20T20:38:22.683Z,7.63
2023-04-20T20:40:50.638Z,7.25
2023-04-20T20:43:19.305Z,12.50
2023-04-20T20:45:47.876Z,8.40
2023-04-20T20:48:15.548Z,7.45
2023-04-20T20:50:43.208Z,8.65
2023-04-20T20:53:11.088Z,5.93
2023-04-20T20:55:38.436Z,9.20
2023-04-20T20:58:06.103Z,9.20
2023-04-20T21:00:33.557Z,7.95
2023-04-20T21:03:01.386Z,7.43
2023-04-20T21:05:28.815Z,7.82
2023-04-20T21:07:58.479Z,8.50
2023-04-20T21:10:25.879Z,8.95
2023-04-20T21:12:53.271Z,7.35
2023-04-20T21:15:20.782Z,7.68
2023-04-20T21:17:48.092Z,8.25
2023-04-20T21:20:15.650Z,9.55
2023-04-20T21:22:43.172Z,12.02
2023-04-20T21:25:10.569Z,9.68
2023-04-20T21:27:37.905Z,10.20
2023-04-20T21:30:05.926Z,7.55
2023-04-20T21:32:33.290Z,9.30
2023-04-20T21:35:00.625Z,7.68
2023-04-20T21:37:27.979Z,11.35
2023-04-20T21:39:55.246Z,8.52
2023-04-20T21:42:22.690Z,8.65
2023-04-20T21:44:50.013Z,10.73
2023-04-20T21:47:17.289Z,11.45
2023-04-20T21:49:44.710Z,9.32
2023-04-20T21:52:12.007Z,8.43
2023-04-20T21:54:40.816Z,8.43
2023-04-20T21:57:08.187Z,10.25
2023-04-20T21:59:35.593Z,10.10
2023-04-20T22:02:04.482Z,12.27
2023-04-20T22:04:33.831Z,8.82
2023-04-20T22:07:01.286Z,9.43
2023-04-20T22:09:28.672Z,9.93
2023-04-20T22:11:57.736Z,10.35
2023-04-20T22:14:25.770Z,10.18
2023-04-20T22:16:53.530Z,8.35
2023-04-20T22:19:21.224Z,11.30
2023-04-20T22:21:48.563Z,10.15
2023-04-20T22:24:15.874Z,10.30
2023-04-20T22:26:43.176Z,10.23
2023-04-20T22:29:10.821Z,13.88
2023-04-20T22:31:38.159Z,10.23
2023-04-20T22:34:05.529Z,10.27
2023-04-20T22:36:32.953Z,11.10
2023-04-20T22:39:00.386Z,11.10
2023-04-20T22:41:27.824Z,12.02
2023-04-20T22:43:55.123Z,9.73
2023-04-20T22:46:22.584Z,13.02
2023-04-20T22:48:50.059Z,11.70
2023-04-20T22:51:17.609Z,11.50
2023-04-20T22:53:45.296Z,9.60
2023-04-20T22:56:13.468Z,11.45
2023-04-20T22:58:40.852Z,14.55
2023-04-20T23:01:08.352Z,11.90
2023-04-20T23:03:35.852Z,12.75
2023-04-20T23:06:03.544Z,10.45
2023-04-20T23:08:30.796Z,13.10
2023-04-20T23:10:58.948Z,10.52
2023-04-20T23:13:26.526Z,10.43
2023-04-20T23:15:54.105Z,12.02
2023-04-20T23:18:21.609Z,12.75
2023-04-20T23:20:48.977Z,14.38
2023-04-20T23:23:16.306Z,12.00
2023-04-20T23:34:57.721Z,10.98
2023-04-20T23:37:25.101Z,12.85
2023-04-20T23:40:01.134Z,12.32
2023-04-20T23:42:36.038Z,12.73
2023-04-20T23:45:08.045Z,12.05
2023-04-20T23:47:40.285Z,12.43
2023-04-20T23:50:10.701Z,13.52
2023-04-20T23:52:38.546Z,13.23
2023-04-20T23:55:06.213Z,13.13
2023-04-20T23:57:33.591Z,11.07
